sensor_id;sensor_type;location;lat;lon;timestamp;P1;durP1;ratioP1;P2;durP2;ratioP2
47804;SDS011;33568;45.286;9.900;2023-08-06T00:01:21;3.92;;;2.25;;
47804;SDS011;33568;45.286;9.900;2023-08-06T00:03:48;6.38;;;2.55;;
47804;SDS011;33568;45.286;9.900;2023-08-06T00:06:15;4.53;;;1.88;;
47804;SDS011;33568;45.286;9.900;2023-08-06T00:08:41;9.07;;;2.60;;
47804;SDS011;33568;45.286;9.900;2023-08-06T00:11:08;2.75;;;2.15;;
47804;SDS011;33568;45.286;9.900;2023-08-06T00:13:34;2.42;;;1.80;;
47804;SDS011;33568;45.286;9.900;2023-08-06T00:16:13;3.85;;;1.95;;
47804;SDS011;33568;45.286;9.900;2023-08-06T00:18:40;2.60;;;2.05;;
47804;SDS011;33568;45.286;9.900;2023-08-06T00:21:06;3.10;;;2.30;;
47804;SDS011;33568;45.286;9.900;2023-08-06T00:23:33;5.43;;;1.88;;
47804;SDS011;33568;45.286;9.900;2023-08-06T00:25:59;3.33;;;2.47;;
47804;SDS011;33568;45.286;9.900;2023-08-06T00:28:26;3.60;;;2.05;;
47804;SDS011;33568;45.286;9.900;2023-08-06T00:30:53;3.33;;;2.03;;
47804;SDS011;33568;45.286;9.900;2023-08-06T00:33:20;5.07;;;2.97;;
47804;SDS011;33568;45.286;9.900;2023-08-06T00:35:47;3.17;;;2.13;;
47804;SDS011;33568;45.286;9.900;2023-08-06T00:38:14;4.97;;;1.88;;
47804;SDS011;33568;45.286;9.900;2023-08-06T00:40:40;7.97;;;3.22;;
47804;SDS011;33568;45.286;9.900;2023-08-06T00:43:07;4.20;;;3.22;;
47804;SDS011;33568;45.286;9.900;2023-08-06T00:45:34;4.93;;;2.58;;
47804;SDS011;33568;45.286;9.900;2023-08-06T00:48:02;4.15;;;2.28;;
47804;SDS011;33568;45.286;9.900;2023-08-06T00:50:30;5.25;;;2.75;;
47804;SDS011;33568;45.286;9.900;2023-08-06T00:52:57;3.50;;;2.47;;
47804;SDS011;33568;45.286;9.900;2023-08-06T00:55:25;4.18;;;2.42;;
47804;SDS011;33568;45.286;9.900;2023-08-06T00:57:51;6.55;;;3.08;;
47804;SDS011;33568;45.286;9.900;2023-08-06T01:00:22;3.50;;;2.50;;
47804;SDS011;33568;45.286;9.900;2023-08-06T01:02:49;6.45;;;2.20;;
47804;SDS011;33568;45.286;9.900;2023-08-06T01:05:16;5.45;;;2.95;;
47804;SDS011;33568;45.286;9.900;2023-08-06T01:13:47;4.35;;;2.33;;
47804;SDS011;33568;45.286;9.900;2023-08-06T01:16:18;3.13;;;2.38;;
47804;SDS011;33568;45.286;9.900;2023-08-06T01:18:47;2.00;;;1.80;;
47804;SDS011;33568;45.286;9.900;2023-08-06T01:21:15;4.75;;;2.00;;
47804;SDS011;33568;45.286;9.900;2023-08-06T01:23:42;5.10;;;2.17;;
47804;SDS011;33568;45.286;9.900;2023-08-06T01:28:59;8.27;;;2.38;;
47804;SDS011;33568;45.286;9.900;2023-08-06T01:31:40;4.57;;;2.75;;
47804;SDS011;33568;45.286;9.900;2023-08-06T01:34:09;2.92;;;2.63;;
47804;SDS011;33568;45.286;9.900;2023-08-06T01:36:42;6.43;;;2.90;;
47804;SDS011;33568;45.286;9.900;2023-08-06T01:39:09;4.18;;;2.47;;
47804;SDS011;33568;45.286;9.900;2023-08-06T01:41:36;6.10;;;2.60;;
47804;SDS011;33568;45.286;9.900;2023-08-06T01:44:03;7.55;;;3.50;;
47804;SDS011;33568;45.286;9.900;2023-08-06T01:46:31;4.68;;;2.75;;
47804;SDS011;33568;45.286;9.900;2023-08-06T01:48:57;8.98;;;3.42;;
47804;SDS011;33568;45.286;9.900;2023-08-06T01:51:24;2.92;;;2.20;;
47804;SDS011;33568;45.286;9.900;2023-08-06T01:53:50;5.68;;;2.25;;
47804;SDS011;33568;45.286;9.900;2023-08-06T01:56:18;6.40;;;2.47;;
47804;SDS011;33568;45.286;9.900;2023-08-06T01:58:44;7.28;;;3.20;;
47804;SDS011;33568;45.286;9.900;2023-08-06T02:01:11;3.20;;;2.22;;
47804;SDS011;33568;45.286;9.900;2023-08-06T02:03:37;3.55;;;1.92;;
47804;SDS011;33568;45.286;9.900;2023-08-06T02:06:04;3.83;;;2.95;;
47804;SDS011;33568;45.286;9.900;2023-08-06T02:08:30;3.75;;;2.33;;
47804;SDS011;33568;45.286;9.900;2023-08-06T02:10:58;5.70;;;2.40;;
47804;SDS011;33568;45.286;9.900;2023-08-06T02:13:25;4.50;;;3.03;;
47804;SDS011;33568;45.286;9.900;2023-08-06T02:15:51;6.13;;;4.10;;
47804;SDS011;33568;45.286;9.900;2023-08-06T02:18:18;6.82;;;3.53;;
47804;SDS011;33568;45.286;9.900;2023-08-06T02:20:44;3.97;;;2.50;;
47804;SDS011;33568;45.286;9.900;2023-08-06T02:23:24;3.80;;;2.20;;
47804;SDS011;33568;45.286;9.900;2023-08-06T02:26:01;2.83;;;1.70;;
47804;SDS011;33568;45.286;9.900;2023-08-06T02:28:28;3.78;;;3.00;;
47804;SDS011;33568;45.286;9.900;2023-08-06T02:30:55;8.40;;;2.63;;
47804;SDS011;33568;45.286;9.900;2023-08-06T02:33:22;3.65;;;1.63;;
47804;SDS011;33568;45.286;9.900;2023-08-06T02:35:49;3.08;;;1.75;;
47804;SDS011;33568;45.286;9.900;2023-08-06T02:38:16;4.65;;;2.53;;
47804;SDS011;33568;45.286;9.900;2023-08-06T02:40:45;3.08;;;1.90;;
47804;SDS011;33568;45.286;9.900;2023-08-06T02:43:12;8.13;;;3.05;;
47804;SDS011;33568;45.286;9.900;2023-08-06T02:45:39;4.07;;;2.10;;
47804;SDS011;33568;45.286;9.900;2023-08-06T02:48:06;4.22;;;1.80;;
47804;SDS011;33568;45.286;9.900;2023-08-06T02:50:39;3.40;;;2.60;;
47804;SDS011;33568;45.286;9.900;2023-08-06T02:53:06;4.40;;;2.83;;
47804;SDS011;33568;45.286;9.900;2023-08-06T02:55:34;4.10;;;2.72;;
47804;SDS011;33568;45.286;9.900;2023-08-06T02:58:05;5.68;;;2.67;;
47804;SDS011;33568;45.286;9.900;2023-08-06T03:00:36;2.55;;;2.30;;
47804;SDS011;33568;45.286;9.900;2023-08-06T03:03:04;4.57;;;2.15;;
47804;SDS011;33568;45.286;9.900;2023-08-06T03:05:50;6.95;;;2.35;;
47804;SDS011;33568;45.286;9.900;2023-08-06T03:08:23;5.25;;;3.30;;
47804;SDS011;33568;45.286;9.900;2023-08-06T03:10:54;4.45;;;3.35;;
47804;SDS011;33568;45.286;9.900;2023-08-06T03:13:20;7.68;;;2.50;;
47804;SDS011;33568;45.286;9.900;2023-08-06T03:15:54;7.35;;;3.55;;
47804;SDS011;33568;45.286;9.900;2023-08-06T03:18:21;8.88;;;3.40;;
47804;SDS011;33568;45.286;9.900;2023-08-06T03:20:50;6.07;;;2.83;;
47804;SDS011;33568;45.286;9.900;2023-08-06T03:23:17;5.90;;;3.88;;
47804;SDS011;33568;45.286;9.900;2023-08-06T03:25:43;9.27;;;3.75;;
47804;SDS011;33568;45.286;9.900;2023-08-06T03:28:12;6.47;;;4.15;;
47804;SDS011;33568;45.286;9.900;2023-08-06T03:30:39;5.85;;;4.00;;
47804;SDS011;33568;45.286;9.900;2023-08-06T03:33:08;11.45;;;4.30;;
47804;SDS011;33568;45.286;9.900;2023-08-06T03:35:34;6.10;;;3.85;;
47804;SDS011;33568;45.286;9.900;2023-08-06T03:38:01;9.18;;;4.25;;
47804;SDS011;33568;45.286;9.900;2023-08-06T03:40:28;9.90;;;4.47;;
47804;SDS011;33568;45.286;9.900;2023-08-06T03:42:56;9.80;;;4.07;;
47804;SDS011;33568;45.286;9.900;2023-08-06T03:45:22;11.73;;;4.25;;
47804;SDS011;33568;45.286;9.900;2023-08-06T03:47:49;9.85;;;4.85;;
47804;SDS011;33568;45.286;9.900;2023-08-06T03:50:16;7.10;;;4.40;;
47804;SDS011;33568;45.286;9.900;2023-08-06T03:52:43;7.40;;;4.75;;
47804;SDS011;33568;45.286;9.900;2023-08-06T03:55:11;8.68;;;4.80;;
47804;SDS011;33568;45.286;9.900;2023-08-06T03:57:37;10.63;;;5.63;;
47804;SDS011;33568;45.286;9.900;2023-08-06T04:00:04;6.40;;;5.07;;
47804;SDS011;33568;45.286;9.900;2023-08-06T04:02:41;7.53;;;6.50;;
47804;SDS011;33568;45.286;9.900;2023-08-06T04:05:09;6.70;;;5.18;;
47804;SDS011;33568;45.286;9.900;2023-08-06T04:07:36;8.80;;;6.07;;
47804;SDS011;33568;45.286;9.900;2023-08-06T04:10:03;8.38;;;5.32;;
47804;SDS011;33568;45.286;9.900;2023-08-06T04:12:31;8.73;;;4.63;;
47804;SDS011;33568;45.286;9.900;2023-08-06T04:15:02;8.55;;;4.97;;
47804;SDS011;33568;45.286;9.900;2023-08-06T04:17:32;8.15;;;5.72;;
47804;SDS011;33568;45.286;9.900;2023-08-06T04:19:59;11.50;;;7.03;;
47804;SDS011;33568;45.286;9.900;2023-08-06T04:22:26;9.85;;;5.63;;
47804;SDS011;33568;45.286;9.900;2023-08-06T04:24:52;9.07;;;4.35;;
47804;SDS011;33568;45.286;9.900;2023-08-06T04:27:19;18.23;;;7.38;;
47804;SDS011;33568;45.286;9.900;2023-08-06T04:29:47;6.88;;;5.90;;
47804;SDS011;33568;45.286;9.900;2023-08-06T04:32:14;9.73;;;6.07;;
47804;SDS011;33568;45.286;9.900;2023-08-06T04:34:46;11.57;;;6.38;;
47804;SDS011;33568;45.286;9.900;2023-08-06T04:37:14;12.10;;;4.60;;
47804;SDS011;33568;45.286;9.900;2023-08-06T04:39:40;6.93;;;4.65;;
47804;SDS011;33568;45.286;9.900;2023-08-06T04:42:07;8.02;;;4.25;;
47804;SDS011;33568;45.286;9.900;2023-08-06T04:44:33;9.15;;;4.22;;
47804;SDS011;33568;45.286;9.900;2023-08-06T04:47:00;8.35;;;3.97;;
47804;SDS011;33568;45.286;9.900;2023-08-06T04:49:26;8.98;;;4.30;;
47804;SDS011;33568;45.286;9.900;2023-08-06T04:51:52;4.95;;;3.10;;
47804;SDS011;33568;45.286;9.900;2023-08-06T04:54:19;9.88;;;4.03;;
47804;SDS011;33568;45.286;9.900;2023-08-06T04:56:45;6.32;;;4.18;;
47804;SDS011;33568;45.286;9.900;2023-08-06T04:59:12;5.63;;;3.53;;
47804;SDS011;33568;45.286;9.900;2023-08-06T05:01:38;7.82;;;3.38;;
47804;SDS011;33568;45.286;9.900;2023-08-06T05:04:05;10.57;;;4.10;;
47804;SDS011;33568;45.286;9.900;2023-08-06T05:06:31;5.20;;;3.00;;
47804;SDS011;33568;45.286;9.900;2023-08-06T05:08:57;6.88;;;2.97;;
47804;SDS011;33568;45.286;9.900;2023-08-06T05:11:24;8.88;;;4.13;;
47804;SDS011;33568;45.286;9.900;2023-08-06T05:13:50;3.85;;;2.78;;
47804;SDS011;33568;45.286;9.900;2023-08-06T05:16:17;9.70;;;3.20;;
47804;SDS011;33568;45.286;9.900;2023-08-06T05:18:43;5.93;;;3.50;;
47804;SDS011;33568;45.286;9.900;2023-08-06T05:21:10;5.80;;;3.40;;
47804;SDS011;33568;45.286;9.900;2023-08-06T05:23:36;6.47;;;3.88;;
47804;SDS011;33568;45.286;9.900;2023-08-06T05:26:03;5.20;;;3.00;;
47804;SDS011;33568;45.286;9.900;2023-08-06T05:28:29;7.15;;;3.75;;
47804;SDS011;33568;45.286;9.900;2023-08-06T05:30:55;3.72;;;2.85;;
47804;SDS011;33568;45.286;9.900;2023-08-06T05:33:22;6.13;;;3.10;;
47804;SDS011;33568;45.286;9.900;2023-08-06T05:35:49;3.63;;;2.53;;
47804;SDS011;33568;45.286;9.900;2023-08-06T05:38:16;4.18;;;3.15;;
47804;SDS011;33568;45.286;9.900;2023-08-06T05:40:43;5.78;;;3.33;;
47804;SDS011;33568;45.286;9.900;2023-08-06T05:43:09;6.53;;;2.97;;
47804;SDS011;33568;45.286;9.900;2023-08-06T05:45:36;2.75;;;2.25;;
47804;SDS011;33568;45.286;9.900;2023-08-06T05:48:02;4.53;;;2.75;;
47804;SDS011;33568;45.286;9.900;2023-08-06T05:50:28;6.35;;;2.67;;
47804;SDS011;33568;45.286;9.900;2023-08-06T05:52:55;4.53;;;2.40;;
47804;SDS011;33568;45.286;9.900;2023-08-06T05:55:21;3.88;;;2.78;;
47804;SDS011;33568;45.286;9.900;2023-08-06T05:57:48;3.42;;;2.53;;
47804;SDS011;33568;45.286;9.900;2023-08-06T06:00:14;3.53;;;2.67;;
47804;SDS011;33568;45.286;9.900;2023-08-06T06:02:41;4.35;;;2.42;;
47804;SDS011;33568;45.286;9.900;2023-08-06T06:05:07;3.92;;;2.58;;
47804;SDS011;33568;45.286;9.900;2023-08-06T06:07:34;3.40;;;2.05;;
47804;SDS011;33568;45.286;9.900;2023-08-06T06:10:00;6.53;;;2.10;;
47804;SDS011;33568;45.286;9.900;2023-08-06T06:12:26;2.70;;;1.80;;
47804;SDS011;33568;45.286;9.900;2023-08-06T06:14:53;3.05;;;1.85;;
47804;SDS011;33568;45.286;9.900;2023-08-06T06:17:19;2.45;;;1.80;;
47804;SDS011;33568;45.286;9.900;2023-08-06T06:19:46;4.60;;;2.35;;
47804;SDS011;33568;45.286;9.900;2023-08-06T06:22:12;4.35;;;2.53;;
47804;SDS011;33568;45.286;9.900;2023-08-06T06:24:39;4.13;;;1.83;;
47804;SDS011;33568;45.286;9.900;2023-08-06T06:27:06;3.45;;;2.00;;
47804;SDS011;33568;45.286;9.900;2023-08-06T06:29:32;5.07;;;1.65;;
47804;SDS011;33568;45.286;9.900;2023-08-06T06:31:59;3.70;;;2.00;;
47804;SDS011;33568;45.286;9.900;2023-08-06T06:34:25;3.63;;;2.08;;
47804;SDS011;33568;45.286;9.900;2023-08-06T06:36:51;4.88;;;1.85;;
47804;SDS011;33568;45.286;9.900;2023-08-06T06:39:18;4.63;;;2.42;;
47804;SDS011;33568;45.286;9.900;2023-08-06T06:41:44;2.97;;;1.63;;
47804;SDS011;33568;45.286;9.900;2023-08-06T06:44:22;2.80;;;1.88;;
47804;SDS011;33568;45.286;9.900;2023-08-06T06:46:48;3.15;;;1.70;;
47804;SDS011;33568;45.286;9.900;2023-08-06T06:49:14;6.82;;;1.55;;
47804;SDS011;33568;45.286;9.900;2023-08-06T06:51:41;8.70;;;2.22;;
47804;SDS011;33568;45.286;9.900;2023-08-06T06:54:07;5.90;;;1.70;;
47804;SDS011;33568;45.286;9.900;2023-08-06T06:56:34;5.07;;;1.52;;
47804;SDS011;33568;45.286;9.900;2023-08-06T06:59:00;2.65;;;1.85;;
47804;SDS011;33568;45.286;9.900;2023-08-06T07:01:27;2.83;;;1.80;;
47804;SDS011;33568;45.286;9.900;2023-08-06T07:03:53;3.83;;;1.85;;
47804;SDS011;33568;45.286;9.900;2023-08-06T07:06:19;7.43;;;1.63;;
47804;SDS011;33568;45.286;9.900;2023-08-06T07:08:46;3.63;;;2.03;;
47804;SDS011;33568;45.286;9.900;2023-08-06T07:11:12;4.75;;;2.17;;
47804;SDS011;33568;45.286;9.900;2023-08-06T07:13:39;3.78;;;1.88;;
47804;SDS011;33568;45.286;9.900;2023-08-06T07:16:05;8.52;;;2.35;;
47804;SDS011;33568;45.286;9.900;2023-08-06T07:18:31;3.60;;;2.10;;
47804;SDS011;33568;45.286;9.900;2023-08-06T07:20:58;6.75;;;1.58;;
47804;SDS011;33568;45.286;9.900;2023-08-06T07:23:25;2.45;;;1.70;;
47804;SDS011;33568;45.286;9.900;2023-08-06T07:25:52;1.63;;;1.52;;
47804;SDS011;33568;45.286;9.900;2023-08-06T07:28:18;3.58;;;1.48;;
47804;SDS011;33568;45.286;9.900;2023-08-06T07:30:45;4.63;;;2.03;;
47804;SDS011;33568;45.286;9.900;2023-08-06T07:33:12;5.43;;;2.00;;
47804;SDS011;33568;45.286;9.900;2023-08-06T07:35:38;3.42;;;1.35;;
47804;SDS011;33568;45.286;9.900;2023-08-06T07:38:05;8.73;;;2.00;;
47804;SDS011;33568;45.286;9.900;2023-08-06T07:40:32;4.90;;;1.90;;
47804;SDS011;33568;45.286;9.900;2023-08-06T07:42:58;2.17;;;1.30;;
47804;SDS011;33568;45.286;9.900;2023-08-06T07:45:25;6.30;;;1.48;;
47804;SDS011;33568;45.286;9.900;2023-08-06T07:47:52;4.55;;;1.40;;
47804;SDS011;33568;45.286;9.900;2023-08-06T07:50:19;7.13;;;1.80;;
47804;SDS011;33568;45.286;9.900;2023-08-06T07:52:45;1.63;;;1.40;;
47804;SDS011;33568;45.286;9.900;2023-08-06T07:55:12;2.33;;;1.20;;
47804;SDS011;33568;45.286;9.900;2023-08-06T07:57:38;3.22;;;1.20;;
47804;SDS011;33568;45.286;9.900;2023-08-06T08:00:05;3.90;;;1.60;;
47804;SDS011;33568;45.286;9.900;2023-08-06T08:02:38;3.15;;;1.67;;
47804;SDS011;33568;45.286;9.900;2023-08-06T08:05:05;13.23;;;2.70;;
47804;SDS011;33568;45.286;9.900;2023-08-06T08:07:34;5.03;;;1.77;;
47804;SDS011;33568;45.286;9.900;2023-08-06T08:10:00;3.53;;;1.27;;
47804;SDS011;33568;45.286;9.900;2023-08-06T08:12:26;2.72;;;1.73;;
47804;SDS011;33568;45.286;9.900;2023-08-06T08:14:53;4.65;;;1.55;;
47804;SDS011;33568;45.286;9.900;2023-08-06T08:17:19;89.55;;;4.38;;
47804;SDS011;33568;45.286;9.900;2023-08-06T08:19:45;5.35;;;1.77;;
47804;SDS011;33568;45.286;9.900;2023-08-06T08:22:12;2.50;;;1.40;;
47804;SDS011;33568;45.286;9.900;2023-08-06T08:24:38;3.72;;;1.30;;
47804;SDS011;33568;45.286;9.900;2023-08-06T08:27:05;8.45;;;1.98;;
47804;SDS011;33568;45.286;9.900;2023-08-06T08:29:31;2.65;;;1.70;;
47804;SDS011;33568;45.286;9.900;2023-08-06T08:31:58;5.45;;;1.30;;
47804;SDS011;33568;45.286;9.900;2023-08-06T08:34:24;3.45;;;1.38;;
47804;SDS011;33568;45.286;9.900;2023-08-06T08:36:51;1.58;;;1.17;;
47804;SDS011;33568;45.286;9.900;2023-08-06T08:39:18;2.85;;;1.70;;
47804;SDS011;33568;45.286;9.900;2023-08-06T08:41:44;3.85;;;1.95;;
47804;SDS011;33568;45.286;9.900;2023-08-06T08:44:10;4.43;;;1.48;;
47804;SDS011;33568;45.286;9.900;2023-08-06T08:46:41;2.63;;;1.63;;
47804;SDS011;33568;45.286;9.900;2023-08-06T08:49:09;2.90;;;1.35;;
47804;SDS011;33568;45.286;9.900;2023-08-06T08:51:37;2.60;;;1.30;;
47804;SDS011;33568;45.286;9.900;2023-08-06T08:54:04;3.08;;;1.83;;
47804;SDS011;33568;45.286;9.900;2023-08-06T08:56:33;4.65;;;1.67;;
47804;SDS011;33568;45.286;9.900;2023-08-06T08:59:00;3.10;;;1.30;;
47804;SDS011;33568;45.286;9.900;2023-08-06T09:01:27;4.65;;;1.55;;
47804;SDS011;33568;45.286;9.900;2023-08-06T09:03:54;3.28;;;1.23;;
47804;SDS011;33568;45.286;9.900;2023-08-06T09:06:21;4.30;;;1.48;;
47804;SDS011;33568;45.286;9.900;2023-08-06T09:09:08;4.85;;;1.80;;
47804;SDS011;33568;45.286;9.900;2023-08-06T09:11:42;6.45;;;2.53;;
47804;SDS011;33568;45.286;9.900;2023-08-06T09:14:10;5.45;;;1.40;;
47804;SDS011;33568;45.286;9.900;2023-08-06T09:16:37;3.95;;;1.55;;
47804;SDS011;33568;45.286;9.900;2023-08-06T09:19:10;3.53;;;1.08;;
47804;SDS011;33568;45.286;9.900;2023-08-06T09:21:44;5.20;;;1.55;;
47804;SDS011;33568;45.286;9.900;2023-08-06T09:24:14;8.27;;;1.50;;
47804;SDS011;33568;45.286;9.900;2023-08-06T09:26:42;7.65;;;1.40;;
47804;SDS011;33568;45.286;9.900;2023-08-06T09:29:10;5.60;;;1.40;;
47804;SDS011;33568;45.286;9.900;2023-08-06T09:31:41;4.28;;;1.30;;
47804;SDS011;33568;45.286;9.900;2023-08-06T09:34:14;2.00;;;1.33;;
47804;SDS011;33568;45.286;9.900;2023-08-06T09:36:43;7.00;;;1.33;;
47804;SDS011;33568;45.286;9.900;2023-08-06T09:39:15;6.18;;;1.48;;
47804;SDS011;33568;45.286;9.900;2023-08-06T09:41:43;2.13;;;1.48;;
47804;SDS011;33568;45.286;9.900;2023-08-06T09:44:20;5.82;;;1.50;;
47804;SDS011;33568;45.286;9.900;2023-08-06T09:46:49;6.97;;;1.65;;
47804;SDS011;33568;45.286;9.900;2023-08-06T09:49:59;1.35;;;1.23;;
47804;SDS011;33568;45.286;9.900;2023-08-06T09:52:11;6.55;;;1.23;;
47804;SDS011;33568;45.286;9.900;2023-08-06T09:54:39;3.75;;;2.13;;
47804;SDS011;33568;45.286;9.900;2023-08-06T09:57:05;8.23;;;1.35;;
47804;SDS011;33568;45.286;9.900;2023-08-06T09:59:32;6.20;;;1.40;;
47804;SDS011;33568;45.286;9.900;2023-08-06T10:01:59;9.73;;;1.23;;
47804;SDS011;33568;45.286;9.900;2023-08-06T10:04:26;11.30;;;1.55;;
47804;SDS011;33568;45.286;9.900;2023-08-06T10:06:54;6.68;;;1.58;;
47804;SDS011;33568;45.286;9.900;2023-08-06T10:09:21;2.85;;;1.40;;
47804;SDS011;33568;45.286;9.900;2023-08-06T10:11:50;3.22;;;1.30;;
47804;SDS011;33568;45.286;9.900;2023-08-06T10:14:19;2.65;;;1.50;;
47804;SDS011;33568;45.286;9.900;2023-08-06T10:16:50;11.52;;;1.30;;
47804;SDS011;33568;45.286;9.900;2023-08-06T10:19:17;2.03;;;1.23;;
47804;SDS011;33568;45.286;9.900;2023-08-06T10:24:50;2.05;;;1.30;;
47804;SDS011;33568;45.286;9.900;2023-08-06T10:27:21;1.58;;;1.20;;
47804;SDS011;33568;45.286;9.900;2023-08-06T10:29:48;2.42;;;1.25;;
47804;SDS011;33568;45.286;9.900;2023-08-06T10:32:18;5.90;;;1.27;;
47804;SDS011;33568;45.286;9.900;2023-08-06T10:34:54;2.30;;;1.48;;
47804;SDS011;33568;45.286;9.900;2023-08-06T10:37:22;3.95;;;1.33;;
47804;SDS011;33568;45.286;9.900;2023-08-06T10:39:52;1.77;;;1.20;;
47804;SDS011;33568;45.286;9.900;2023-08-06T10:42:22;1.88;;;1.20;;
47804;SDS011;33568;45.286;9.900;2023-08-06T10:47:45;6.45;;;1.20;;
47804;SDS011;33568;45.286;9.900;2023-08-06T10:50:13;7.57;;;1.30;;
47804;SDS011;33568;45.286;9.900;2023-08-06T10:52:43;4.93;;;1.27;;
47804;SDS011;33568;45.286;9.900;2023-08-06T10:55:10;1.08;;;1.00;;
47804;SDS011;33568;45.286;9.900;2023-08-06T10:57:37;3.40;;;1.40;;
47804;SDS011;33568;45.286;9.900;2023-08-06T11:00:07;4.95;;;1.10;;
47804;SDS011;33568;45.286;9.900;2023-08-06T11:02:34;1.23;;;0.93;;
47804;SDS011;33568;45.286;9.900;2023-08-06T11:05:08;1.50;;;1.08;;
47804;SDS011;33568;45.286;9.900;2023-08-06T11:07:35;2.08;;;1.40;;
47804;SDS011;33568;45.286;9.900;2023-08-06T11:10:07;3.85;;;1.10;;
47804;SDS011;33568;45.286;9.900;2023-08-06T11:12:35;2.92;;;0.90;;
47804;SDS011;33568;45.286;9.900;2023-08-06T11:15:02;1.65;;;0.85;;
47804;SDS011;33568;45.286;9.900;2023-08-06T11:17:31;11.70;;;1.95;;
47804;SDS011;33568;45.286;9.900;2023-08-06T11:19:59;1.27;;;1.15;;
47804;SDS011;33568;45.286;9.900;2023-08-06T11:22:26;2.20;;;1.00;;
47804;SDS011;33568;45.286;9.900;2023-08-06T11:24:53;1.10;;;1.00;;
47804;SDS011;33568;45.286;9.900;2023-08-06T11:27:20;1.60;;;1.35;;
47804;SDS011;33568;45.286;9.900;2023-08-06T11:29:46;2.97;;;1.10;;
47804;SDS011;33568;45.286;9.900;2023-08-06T11:32:13;3.40;;;1.10;;
47804;SDS011;33568;45.286;9.900;2023-08-06T11:34:39;5.63;;;1.10;;
47804;SDS011;33568;45.286;9.900;2023-08-06T11:37:07;1.30;;;1.20;;
47804;SDS011;33568;45.286;9.900;2023-08-06T11:39:37;2.60;;;1.10;;
47804;SDS011;33568;45.286;9.900;2023-08-06T11:42:05;2.45;;;1.13;;
47804;SDS011;33568;45.286;9.900;2023-08-06T11:44:33;2.13;;;1.13;;
47804;SDS011;33568;45.286;9.900;2023-08-06T11:47:03;1.08;;;1.00;;
47804;SDS011;33568;45.286;9.900;2023-08-06T11:52:25;1.75;;;1.10;;
47804;SDS011;33568;45.286;9.900;2023-08-06T11:55:08;1.80;;;1.20;;
47804;SDS011;33568;45.286;9.900;2023-08-06T11:57:38;1.73;;;1.17;;
47804;SDS011;33568;45.286;9.900;2023-08-06T12:00:11;1.10;;;1.00;;
47804;SDS011;33568;45.286;9.900;2023-08-06T12:02:41;1.85;;;1.00;;
47804;SDS011;33568;45.286;9.900;2023-08-06T12:07:50;1.88;;;1.10;;
47804;SDS011;33568;45.286;9.900;2023-08-06T12:10:24;1.77;;;1.13;;
47804;SDS011;33568;45.286;9.900;2023-08-06T12:12:51;1.88;;;1.13;;
47804;SDS011;33568;45.286;9.900;2023-08-06T12:15:18;2.30;;;1.33;;
47804;SDS011;33568;45.286;9.900;2023-08-06T12:17:45;1.60;;;1.30;;
47804;SDS011;33568;45.286;9.900;2023-08-06T12:20:11;3.72;;;1.20;;
47804;SDS011;33568;45.286;9.900;2023-08-06T12:22:38;6.45;;;1.30;;
47804;SDS011;33568;45.286;9.900;2023-08-06T12:25:06;4.60;;;1.95;;
47804;SDS011;33568;45.286;9.900;2023-08-06T12:27:35;2.80;;;1.23;;
47804;SDS011;33568;45.286;9.900;2023-08-06T12:30:01;1.45;;;0.93;;
47804;SDS011;33568;45.286;9.900;2023-08-06T12:32:30;1.58;;;1.23;;
47804;SDS011;33568;45.286;9.900;2023-08-06T12:34:57;4.18;;;1.48;;
47804;SDS011;33568;45.286;9.900;2023-08-06T12:37:24;4.15;;;1.50;;
47804;SDS011;33568;45.286;9.900;2023-08-06T12:39:51;2.35;;;1.48;;
47804;SDS011;33568;45.286;9.900;2023-08-06T12:42:17;1.50;;;1.20;;
47804;SDS011;33568;45.286;9.900;2023-08-06T12:44:44;2.72;;;1.40;;
47804;SDS011;33568;45.286;9.900;2023-08-06T12:47:11;1.20;;;1.02;;
47804;SDS011;33568;45.286;9.900;2023-08-06T12:49:38;1.88;;;1.10;;
47804;SDS011;33568;45.286;9.900;2023-08-06T12:52:04;1.00;;;1.00;;
47804;SDS011;33568;45.286;9.900;2023-08-06T12:54:32;2.15;;;1.20;;
47804;SDS011;33568;45.286;9.900;2023-08-06T12:57:04;1.45;;;1.25;;
47804;SDS011;33568;45.286;9.900;2023-08-06T12:59:31;3.53;;;1.48;;
47804;SDS011;33568;45.286;9.900;2023-08-06T13:02:02;4.43;;;1.23;;
47804;SDS011;33568;45.286;9.900;2023-08-06T13:04:29;1.20;;;1.00;;
47804;SDS011;33568;45.286;9.900;2023-08-06T13:06:56;2.58;;;1.48;;
47804;SDS011;33568;45.286;9.900;2023-08-06T13:09:22;1.15;;;1.05;;
47804;SDS011;33568;45.286;9.900;2023-08-06T13:11:49;1.52;;;1.30;;
47804;SDS011;33568;45.286;9.900;2023-08-06T13:14:16;3.72;;;0.98;;
47804;SDS011;33568;45.286;9.900;2023-08-06T13:16:43;3.60;;;1.27;;
47804;SDS011;33568;45.286;9.900;2023-08-06T13:19:10;2.20;;;1.13;;
47804;SDS011;33568;45.286;9.900;2023-08-06T13:24:17;4.45;;;1.20;;
47804;SDS011;33568;45.286;9.900;2023-08-06T13:26:43;4.22;;;1.20;;
47804;SDS011;33568;45.286;9.900;2023-08-06T13:29:10;2.38;;;1.10;;
47804;SDS011;33568;45.286;9.900;2023-08-06T13:31:36;3.45;;;1.00;;
47804;SDS011;33568;45.286;9.900;2023-08-06T13:34:03;5.18;;;1.30;;
47804;SDS011;33568;45.286;9.900;2023-08-06T13:36:30;2.67;;;1.23;;
47804;SDS011;33568;45.286;9.900;2023-08-06T13:38:57;7.55;;;1.40;;
47804;SDS011;33568;45.286;9.900;2023-08-06T13:41:23;2.85;;;1.20;;
47804;SDS011;33568;45.286;9.900;2023-08-06T13:43:50;1.67;;;1.05;;
47804;SDS011;33568;45.286;9.900;2023-08-06T13:46:17;6.63;;;1.33;;
47804;SDS011;33568;45.286;9.900;2023-08-06T13:48:46;1.33;;;1.20;;
47804;SDS011;33568;45.286;9.900;2023-08-06T13:51:14;0.93;;;0.93;;
47804;SDS011;33568;45.286;9.900;2023-08-06T13:53:40;1.20;;;1.10;;
47804;SDS011;33568;45.286;9.900;2023-08-06T13:56:08;1.15;;;1.05;;
47804;SDS011;33568;45.286;9.900;2023-08-06T13:58:38;1.20;;;1.10;;
47804;SDS011;33568;45.286;9.900;2023-08-06T14:01:04;1.95;;;1.27;;
47804;SDS011;33568;45.286;9.900;2023-08-06T14:03:31;1.30;;;1.10;;
47804;SDS011;33568;45.286;9.900;2023-08-06T14:05:58;3.20;;;1.55;;
47804;SDS011;33568;45.286;9.900;2023-08-06T14:08:24;1.67;;;1.10;;
47804;SDS011;33568;45.286;9.900;2023-08-06T14:10:51;4.55;;;1.15;;
47804;SDS011;33568;45.286;9.900;2023-08-06T14:13:18;1.52;;;1.10;;
47804;SDS011;33568;45.286;9.900;2023-08-06T14:15:45;1.65;;;0.90;;
47804;SDS011;33568;45.286;9.900;2023-08-06T14:18:14;2.08;;;1.23;;
47804;SDS011;33568;45.286;9.900;2023-08-06T14:20:42;2.33;;;1.35;;
47804;SDS011;33568;45.286;9.900;2023-08-06T14:23:09;1.20;;;0.93;;
47804;SDS011;33568;45.286;9.900;2023-08-06T14:25:36;2.67;;;1.27;;
47804;SDS011;33568;45.286;9.900;2023-08-06T14:28:03;2.17;;;1.40;;
47804;SDS011;33568;45.286;9.900;2023-08-06T14:30:31;2.95;;;1.10;;
47804;SDS011;33568;45.286;9.900;2023-08-06T14:32:57;7.22;;;1.40;;
47804;SDS011;33568;45.286;9.900;2023-08-06T14:35:26;1.70;;;1.25;;
47804;SDS011;33568;45.286;9.900;2023-08-06T14:37:52;11.18;;;1.60;;
47804;SDS011;33568;45.286;9.900;2023-08-06T14:40:19;1.48;;;1.02;;
47804;SDS011;33568;45.286;9.900;2023-08-06T14:42:45;2.88;;;1.10;;
47804;SDS011;33568;45.286;9.900;2023-08-06T14:45:12;5.00;;;1.20;;
47804;SDS011;33568;45.286;9.900;2023-08-06T14:47:38;4.28;;;0.98;;
47804;SDS011;33568;45.286;9.900;2023-08-06T14:50:05;3.35;;;1.10;;
47804;SDS011;33568;45.286;9.900;2023-08-06T14:52:31;2.45;;;1.05;;
47804;SDS011;33568;45.286;9.900;2023-08-06T14:54:59;1.15;;;1.05;;
47804;SDS011;33568;45.286;9.900;2023-08-06T14:57:28;3.95;;;1.33;;
47804;SDS011;33568;45.286;9.900;2023-08-06T14:59:54;3.85;;;1.15;;
47804;SDS011;33568;45.286;9.900;2023-08-06T15:02:22;11.13;;;1.50;;
47804;SDS011;33568;45.286;9.900;2023-08-06T15:04:48;6.57;;;1.30;;
47804;SDS011;33568;45.286;9.900;2023-08-06T15:07:16;3.55;;;1.30;;
47804;SDS011;33568;45.286;9.900;2023-08-06T15:09:42;5.53;;;0.98;;
47804;SDS011;33568;45.286;9.900;2023-08-06T15:12:08;2.28;;;1.10;;
47804;SDS011;33568;45.286;9.900;2023-08-06T15:14:35;3.15;;;1.00;;